Time;durP1;ratioP1;P1;durP2;ratioP2;P2;SDS_P1;SDS_P2;PMS_P1;PMS_P2;Temp;Humidity;BMP_temperature;BMP_pressure;BME280_temperature;BME280_humidity;BME280_pressure;Samples;Min_cycle;Max_cycle;Signal;HPM_P1;HPM_P2
2024/01/27 00:00:52;;;;;;;6.90;1.67;;;;;;;;;;4974435;28;20190;-85
2024/01/27 00:03:56;;;;;;;3.90;1.70;;;;;;;;;;4974866;28;20190;-84
2024/01/27 00:07:01;;;;;;;6.00;1.63;;;;;;;;;;4997476;28;20194;-85
2024/01/27 00:10:06;;;;;;;8.80;2.07;;;;;;;;;;4975006;28;20190;-85
2024/01/27 00:13:09;;;;;;;2.73;1.40;;;;;;;;;;4997096;28;20542;-85
2024/01/27 00:16:14;;;;;;;4.77;1.57;;;;;;;;;;4996394;28;20617;-85
2024/01/27 00:19:18;;;;;;;2.23;1.53;;;;;;;;;;4997230;28;20199;-85
2024/01/27 00:22:22;;;;;;;6.33;1.80;;;;;;;;;;4996930;28;21058;-85
2024/01/27 00:25:26;;;;;;;3.77;1.93;;;;;;;;;;4988589;28;20233;-85
2024/01/27 00:28:31;;;;;;;6.87;1.80;;;;;;;;;;5000136;28;20190;-84
2024/01/27 00:31:35;;;;;;;9.07;2.17;;;;;;;;;;4976572;28;20566;-84
2024/01/27 00:34:39;;;;;;;4.17;2.07;;;;;;;;;;4987423;28;20188;-84
2024/01/27 00:37:44;;;;;;;4.00;1.90;;;;;;;;;;4999879;28;20667;-84
2024/01/27 00:40:48;;;;;;;5.67;2.40;;;;;;;;;;4987612;28;20565;-84
2024/01/27 00:43:52;;;;;;;4.10;1.97;;;;;;;;;;4988166;28;20557;-84
2024/01/27 00:46:56;;;;;;;4.07;1.73;;;;;;;;;;4988056;28;20527;-84
2024/01/27 00:50:00;;;;;;;3.90;1.60;;;;;;;;;;5000044;28;21086;-85
2024/01/27 00:53:05;;;;;;;4.00;1.63;;;;;;;;;;4988122;28;20542;-84
2024/01/27 00:56:09;;;;;;;2.93;1.60;;;;;;;;;;4976797;28;20620;-85
2024/01/27 00:59:14;;;;;;;5.77;1.60;;;;;;;;;;4998565;28;20557;-84
2024/01/27 01:02:19;;;;;;;4.63;1.50;;;;;;;;;;4999405;28;20550;-85
2024/01/27 01:05:24;;;;;;;7.27;1.70;;;;;;;;;;4988196;28;20652;-85
2024/01/27 01:08:28;;;;;;;3.50;1.80;;;;;;;;;;4998942;28;20542;-84
2024/01/27 01:11:33;;;;;;;7.17;1.97;;;;;;;;;;4999455;28;21059;-85
2024/01/27 01:14:37;;;;;;;3.97;1.83;;;;;;;;;;4976633;28;20537;-84
2024/01/27 01:17:42;;;;;;;4.13;2.03;;;;;;;;;;4987681;28;20888;-84
2024/01/27 01:20:46;;;;;;;5.23;1.77;;;;;;;;;;5000155;28;20557;-84
2024/01/27 01:23:50;;;;;;;3.77;1.60;;;;;;;;;;4999892;28;20541;-84
2024/01/27 01:26:55;;;;;;;4.60;1.73;;;;;;;;;;4966110;28;20542;-85
2024/01/27 01:30:00;;;;;;;6.57;1.80;;;;;;;;;;4999219;28;20549;-84
2024/01/27 01:33:04;;;;;;;3.83;1.57;;;;;;;;;;4988126;28;20542;-84
2024/01/27 01:36:09;;;;;;;5.67;1.70;;;;;;;;;;4987759;28;20612;-84
2024/01/27 01:39:13;;;;;;;2.37;1.67;;;;;;;;;;4987577;28;21083;-85
2024/01/27 01:42:18;;;;;;;5.20;1.60;;;;;;;;;;4988368;28;20546;-85
2024/01/27 01:45:22;;;;;;;10.73;1.73;;;;;;;;;;4976073;28;21197;-85
2024/01/27 01:48:26;;;;;;;4.47;1.80;;;;;;;;;;4987628;28;21094;-85
2024/01/27 01:51:30;;;;;;;2.77;1.60;;;;;;;;;;4987662;28;20538;-84
2024/01/27 01:54:34;;;;;;;4.13;1.87;;;;;;;;;;4987200;28;20562;-85
2024/01/27 01:57:38;;;;;;;3.30;1.73;;;;;;;;;;4965416;28;20542;-84
2024/01/27 02:00:42;;;;;;;5.13;1.70;;;;;;;;;;4988082;28;20546;-85
2024/01/27 02:03:56;;;;;;;4.93;1.90;;;;;;;;;;4987910;28;20553;-84
2024/01/27 02:07:01;;;;;;;7.60;2.00;;;;;;;;;;4999113;28;21071;-84
2024/01/27 02:10:12;;;;;;;5.13;2.30;;;;;;;;;;4998364;28;20557;-84
2024/01/27 02:13:21;;;;;;;7.87;2.30;;;;;;;;;;4976257;28;20538;-85
2024/01/27 02:16:27;;;;;;;5.97;2.00;;;;;;;;;;4975458;28;20629;-85
2024/01/27 02:19:31;;;;;;;6.50;1.97;;;;;;;;;;4987696;28;20561;-84
2024/01/27 02:22:36;;;;;;;8.43;2.27;;;;;;;;;;4987525;28;20534;-84
2024/01/27 02:25:40;;;;;;;3.13;1.90;;;;;;;;;;4997545;28;20649;-85
2024/01/27 02:28:44;;;;;;;4.97;2.00;;;;;;;;;;4986406;28;20542;-85
2024/01/27 02:31:48;;;;;;;4.57;2.23;;;;;;;;;;4999172;28;20546;-84
2024/01/27 02:34:53;;;;;;;5.07;2.20;;;;;;;;;;4998749;28;20636;-84
2024/01/27 02:37:57;;;;;;;4.13;1.60;;;;;;;;;;4974471;28;20617;-84
2024/01/27 02:41:01;;;;;;;5.73;2.07;;;;;;;;;;4986021;28;20565;-85
2024/01/27 02:44:05;;;;;;;3.37;1.90;;;;;;;;;;4986519;28;20540;-85
2024/01/27 02:47:09;;;;;;;6.17;2.00;;;;;;;;;;4985681;28;21071;-84
2024/01/27 02:50:14;;;;;;;4.77;1.87;;;;;;;;;;4997289;28;20561;-84
2024/01/27 02:53:18;;;;;;;9.73;2.40;;;;;;;;;;4997422;28;21078;-84
2024/01/27 02:56:22;;;;;;;5.73;2.13;;;;;;;;;;4974957;28;21186;-85
2024/01/27 02:59:26;;;;;;;3.13;1.83;;;;;;;;;;4985929;28;20546;-85
2024/01/27 03:02:32;;;;;;;3.40;1.93;;;;;;;;;;4997425;28;20545;-84
2024/01/27 03:05:36;;;;;;;5.90;2.13;;;;;;;;;;4998199;28;20645;-84
2024/01/27 03:08:41;;;;;;;8.27;2.10;;;;;;;;;;4986855;28;20545;-85
2024/01/27 03:11:45;;;;;;;5.43;1.90;;;;;;;;;;4987155;28;20546;-85
2024/01/27 03:14:50;;;;;;;6.90;1.80;;;;;;;;;;4986199;28;20625;-84
2024/01/27 03:17:54;;;;;;;8.37;1.90;;;;;;;;;;4998336;28;20562;-85
2024/01/27 03:20:58;;;;;;;5.90;1.90;;;;;;;;;;4986291;28;20537;-84
2024/01/27 03:24:04;;;;;;;7.37;2.17;;;;;;;;;;4997807;28;20542;-83
2024/01/27 03:27:09;;;;;;;8.80;2.13;;;;;;;;;;4997541;28;20597;-85
2024/01/27 03:30:13;;;;;;;4.83;1.83;;;;;;;;;;4986590;28;21059;-85
2024/01/27 03:33:17;;;;;;;4.47;2.10;;;;;;;;;;4997457;28;20562;-85
2024/01/27 03:36:21;;;;;;;5.27;2.00;;;;;;;;;;4975226;28;20613;-84
2024/01/27 03:39:25;;;;;;;7.17;1.90;;;;;;;;;;4998075;28;20550;-84
2024/01/27 03:42:29;;;;;;;4.33;1.77;;;;;;;;;;4997851;28;20542;-85
2024/01/27 03:45:34;;;;;;;4.77;2.00;;;;;;;;;;4997954;28;20661;-85
2024/01/27 03:48:38;;;;;;;5.83;2.17;;;;;;;;;;4974250;28;20554;-85
2024/01/27 03:51:42;;;;;;;4.07;2.17;;;;;;;;;;4996713;28;20542;-84
2024/01/27 03:54:46;;;;;;;3.47;1.70;;;;;;;;;;4984974;28;20625;-85
2024/01/27 03:57:50;;;;;;;3.53;2.00;;;;;;;;;;4996799;28;21082;-84
2024/01/27 04:00:54;;;;;;;4.37;2.00;;;;;;;;;;4977989;28;20538;-84
2024/01/27 04:03:58;;;;;;;4.47;2.17;;;;;;;;;;4978229;28;20553;-85
2024/01/27 04:07:03;;;;;;;3.43;1.83;;;;;;;;;;5001253;28;20589;-84
2024/01/27 04:10:07;;;;;;;6.27;2.17;;;;;;;;;;5000968;28;20566;-84
2024/01/27 04:13:11;;;;;;;5.57;2.00;;;;;;;;;;5000722;28;20534;-85
2024/01/27 04:16:15;;;;;;;5.20;2.10;;;;;;;;;;5000361;28;20609;-84
2024/01/27 04:19:19;;;;;;;9.87;2.43;;;;;;;;;;5000638;28;20537;-85
2024/01/27 04:22:23;;;;;;;5.17;1.87;;;;;;;;;;5000680;28;20545;-85
2024/01/27 04:25:28;;;;;;;4.90;1.97;;;;;;;;;;4988644;28;20616;-85
2024/01/27 04:28:32;;;;;;;7.47;2.00;;;;;;;;;;5000855;28;20545;-84
2024/01/27 04:31:39;;;;;;;4.97;2.20;;;;;;;;;;5000439;28;20541;-85
2024/01/27 04:34:44;;;;;;;9.03;2.37;;;;;;;;;;4999687;28;21105;-84
2024/01/27 04:37:47;;;;;;;8.20;2.50;;;;;;;;;;5000455;28;20609;-85
2024/01/27 04:40:52;;;;;;;9.93;3.33;;;;;;;;;;4988045;28;20557;-84
2024/01/27 04:43:56;;;;;;;7.07;2.27;;;;;;;;;;4987400;28;20880;-84
2024/01/27 04:47:01;;;;;;;11.23;2.70;;;;;;;;;;4987358;28;20612;-84
2024/01/27 04:50:05;;;;;;;4.97;2.47;;;;;;;;;;4999580;28;20561;-84
2024/01/27 04:53:10;;;;;;;7.47;2.30;;;;;;;;;;4987988;28;20545;-84
2024/01/27 04:56:14;;;;;;;8.33;2.30;;;;;;;;;;4999222;28;20612;-85
2024/01/27 04:59:18;;;;;;;6.40;2.00;;;;;;;;;;4988301;28;20545;-85
2024/01/27 05:02:22;;;;;;;5.97;2.30;;;;;;;;;;4988059;28;20545;-84
2024/01/27 05:05:26;;;;;;;6.87;2.27;;;;;;;;;;4999934;28;20620;-84
2024/01/27 05:08:31;;;;;;;3.43;2.00;;;;;;;;;;4976162;28;20915;-85
2024/01/27 05:11:35;;;;;;;3.97;2.20;;;;;;;;;;4987777;28;20542;-85
2024/01/27 05:14:44;;;;;;;7.43;2.60;;;;;;;;;;4998723;28;20538;-84
2024/01/27 05:17:49;;;;;;;5.33;2.03;;;;;;;;;;4976622;28;20861;-84
2024/01/27 05:20:53;;;;;;;5.93;2.40;;;;;;;;;;4987663;28;21066;-85
2024/01/27 05:23:57;;;;;;;4.00;1.97;;;;;;;;;;4976603;28;20546;-84
2024/01/27 05:27:01;;;;;;;6.83;2.63;;;;;;;;;;4987653;28;20593;-85
2024/01/27 05:30:07;;;;;;;8.50;2.37;;;;;;;;;;4999907;28;20542;-85
2024/01/27 05:33:10;;;;;;;7.17;2.67;;;;;;;;;;4998801;28;20538;-84
2024/01/27 05:36:16;;;;;;;5.07;2.33;;;;;;;;;;5000388;28;20978;-84
2024/01/27 05:39:20;;;;;;;6.73;2.43;;;;;;;;;;4998497;28;21070;-85
2024/01/27 05:42:24;;;;;;;6.63;2.27;;;;;;;;;;4998485;28;20558;-85
2024/01/27 05:45:28;;;;;;;9.10;2.80;;;;;;;;;;4998017;28;21181;-85
2024/01/27 05:48:34;;;;;;;9.67;2.70;;;;;;;;;;4975726;28;20526;-83
2024/01/27 05:51:38;;;;;;;4.43;2.50;;;;;;;;;;4998279;28;20538;-83
2024/01/27 05:54:43;;;;;;;11.50;2.40;;;;;;;;;;4974958;28;20558;-83
2024/01/27 05:57:47;;;;;;;14.30;3.40;;;;;;;;;;4997242;28;20882;-83
2024/01/27 06:00:51;;;;;;;10.10;2.50;;;;;;;;;;4997691;28;20546;-83
2024/01/27 06:03:56;;;;;;;7.40;3.07;;;;;;;;;;4997694;28;20549;-83
2024/01/27 06:07:01;;;;;;;8.83;2.83;;;;;;;;;;4986445;28;20589;-83
2024/01/27 06:10:08;;;;;;;8.03;2.73;;;;;;;;;;4997834;28;20561;-83
2024/01/27 06:13:13;;;;;;;6.80;2.93;;;;;;;;;;4975151;28;20534;-83
2024/01/27 06:16:20;;;;;;;6.17;2.93;;;;;;;;;;4986524;28;20621;-83
2024/01/27 06:19:24;;;;;;;8.27;2.97;;;;;;;;;;4986358;28;20595;-83
2024/01/27 06:22:28;;;;;;;5.43;2.83;;;;;;;;;;4999383;28;20549;-83
2024/01/27 06:25:33;;;;;;;8.80;3.23;;;;;;;;;;4997472;28;20624;-83
2024/01/27 06:28:37;;;;;;;9.80;2.77;;;;;;;;;;4997180;28;20531;-83
2024/01/27 06:31:41;;;;;;;11.00;3.07;;;;;;;;;;4998286;28;20542;-83
2024/01/27 06:34:45;;;;;;;8.60;2.97;;;;;;;;;;4997612;28;20562;-83
2024/01/27 06:37:50;;;;;;;7.40;3.13;;;;;;;;;;4985480;28;21161;-83
2024/01/27 06:40:54;;;;;;;9.23;3.30;;;;;;;;;;4985746;28;20566;-83
2024/01/27 06:43:59;;;;;;;7.00;2.93;;;;;;;;;;4996389;28;20876;-83
2024/01/27 06:47:03;;;;;;;7.23;2.90;;;;;;;;;;4973606;28;20593;-82
2024/01/27 06:50:08;;;;;;;9.80;3.00;;;;;;;;;;4995999;28;20542;-83
2024/01/27 06:53:12;;;;;;;7.73;3.23;;;;;;;;;;4984944;28;20538;-83
2024/01/27 06:56:17;;;;;;;8.97;3.50;;;;;;;;;;4996191;28;20625;-83
2024/01/27 06:59:21;;;;;;;10.77;3.73;;;;;;;;;;4974119;28;20554;-84
2024/01/27 07:02:28;;;;;;;48.03;24.27;;;;;;;;;;4973356;28;20542;-83
2024/01/27 07:05:38;;;;;;;12.53;7.60;;;;;;;;;;4997045;28;20629;-83
2024/01/27 07:08:42;;;;;;;12.00;4.47;;;;;;;;;;4996423;28;20550;-83
2024/01/27 07:11:46;;;;;;;8.17;3.33;;;;;;;;;;4973825;28;20537;-83
2024/01/27 07:14:56;;;;;;;7.80;3.40;;;;;;;;;;4996822;28;20621;-83
2024/01/27 07:18:00;;;;;;;9.60;3.70;;;;;;;;;;4996481;28;20554;-84
2024/01/27 07:21:04;;;;;;;7.70;3.40;;;;;;;;;;4973525;28;20903;-83
2024/01/27 07:24:09;;;;;;;10.03;3.87;;;;;;;;;;4996260;28;20542;-83
2024/01/27 07:27:13;;;;;;;10.00;4.47;;;;;;;;;;4996850;28;20594;-83
2024/01/27 07:30:17;;;;;;;7.47;3.37;;;;;;;;;;4995176;28;20896;-83
2024/01/27 07:33:21;;;;;;;47.50;21.30;;;;;;;;;;4984592;28;20911;-83
2024/01/27 07:36:30;;;;;;;95.70;41.87;;;;;;;;;;4995916;28;20652;-83
2024/01/27 07:39:34;;;;;;;52.03;25.07;;;;;;;;;;4995052;28;20566;-83
2024/01/27 07:42:39;;;;;;;31.50;12.77;;;;;;;;;;4995937;28;20553;-83
2024/01/27 07:45:44;;;;;;;16.17;6.00;;;;;;;;;;4995894;28;20621;-83
2024/01/27 07:48:49;;;;;;;9.77;4.80;;;;;;;;;;4983688;28;20589;-83
2024/01/27 07:51:53;;;;;;;6.17;2.90;;;;;;;;;;4995563;28;21070;-83
2024/01/27 07:54:57;;;;;;;8.77;3.83;;;;;;;;;;4995875;28;20629;-83
2024/01/27 07:58:02;;;;;;;9.10;3.73;;;;;;;;;;4983976;28;21070;-83
2024/01/27 08:01:06;;;;;;;9.53;4.30;;;;;;;;;;4995735;28;20906;-83
2024/01/27 08:04:10;;;;;;;10.93;4.63;;;;;;;;;;4972890;28;20557;-83
2024/01/27 08:07:16;;;;;;;8.03;3.67;;;;;;;;;;4995665;28;20594;-83
2024/01/27 08:10:20;;;;;;;5.80;3.23;;;;;;;;;;4995597;28;20931;-82
2024/01/27 08:13:24;;;;;;;9.57;4.80;;;;;;;;;;4995134;28;21106;-83
2024/01/27 08:16:29;;;;;;;7.70;3.17;;;;;;;;;;4983486;28;20624;-83
2024/01/27 08:19:33;;;;;;;8.57;3.70;;;;;;;;;;4995580;28;20562;-81
2024/01/27 08:22:37;;;;;;;10.03;3.20;;;;;;;;;;4997053;28;20532;-78
2024/01/27 08:25:44;;;;;;;9.37;3.20;;;;;;;;;;4995942;28;20625;-80
2024/01/27 08:28:48;;;;;;;8.20;4.30;;;;;;;;;;4995550;28;20182;-83
2024/01/27 08:31:52;;;;;;;9.90;3.23;;;;;;;;;;4972337;28;20187;-82
2024/01/27 08:34:56;;;;;;;8.93;3.50;;;;;;;;;;4995187;28;20226;-80
2024/01/27 08:38:00;;;;;;;8.10;3.40;;;;;;;;;;4995044;28;20217;-83
2024/01/27 08:41:05;;;;;;;7.80;3.00;;;;;;;;;;4961426;28;20190;-83
2024/01/27 08:44:09;;;;;;;7.97;5.13;;;;;;;;;;4995399;28;20186;-84
2024/01/27 08:47:13;;;;;;;8.37;4.63;;;;;;;;;;4986903;28;20221;-83
2024/01/27 08:50:17;;;;;;;10.50;3.10;;;;;;;;;;4999220;28;20194;-84
2024/01/27 08:53:21;;;;;;;8.93;3.20;;;;;;;;;;4975754;28;20519;-84
2024/01/27 08:56:25;;;;;;;6.80;3.80;;;;;;;;;;4997466;28;20226;-83
2024/01/27 08:59:29;;;;;;;6.77;4.50;;;;;;;;;;4998081;28;20567;-84
2024/01/27 09:02:33;;;;;;;12.63;4.27;;;;;;;;;;4985795;28;20551;-82
2024/01/27 09:05:37;;;;;;;8.70;2.93;;;;;;;;;;4998104;28;20226;-86
2024/01/27 09:08:41;;;;;;;8.50;3.03;;;;;;;;;;4998964;28;20214;-85
2024/01/27 09:11:46;;;;;;;8.47;3.73;;;;;;;;;;4997807;28;20190;-84
2024/01/27 09:14:50;;;;;;;7.50;3.00;;;;;;;;;;4986761;28;20217;-84
2024/01/27 09:17:54;;;;;;;9.23;2.87;;;;;;;;;;4999345;28;20190;-86
2024/01/27 09:20:59;;;;;;;6.47;2.43;;;;;;;;;;4987908;28;20528;-85
2024/01/27 09:24:03;;;;;;;9.20;4.17;;;;;;;;;;4999347;28;20547;-85
2024/01/27 09:27:07;;;;;;;8.37;2.40;;;;;;;;;;4997717;28;20215;-85
2024/01/27 09:30:14;;;;;;;9.20;2.53;;;;;;;;;;5000432;28;20186;-84
2024/01/27 09:33:22;;;;;;;10.27;3.10;;;;;;;;;;4975322;28;20183;-83
2024/01/27 09:36:26;;;;;;;9.07;2.87;;;;;;;;;;4985942;28;20229;-84
2024/01/27 09:39:31;;;;;;;8.60;2.80;;;;;;;;;;4998630;28;20539;-84
2024/01/27 09:42:39;;;;;;;9.47;2.93;;;;;;;;;;4997946;28;20182;-84
2024/01/27 09:45:45;;;;;;;9.27;2.67;;;;;;;;;;4985753;28;20222;-84
2024/01/27 09:48:49;;;;;;;8.13;3.20;;;;;;;;;;4996772;28;20560;-84
2024/01/27 09:51:54;;;;;;;6.70;2.57;;;;;;;;;;4998321;28;20194;-85
2024/01/27 09:54:58;;;;;;;8.87;3.30;;;;;;;;;;4990233;28;20222;-84
2024/01/27 09:58:04;;;;;;;15.33;3.10;;;;;;;;;;4998097;28;20209;-85
2024/01/27 10:01:08;;;;;;;9.67;2.90;;;;;;;;;;4975606;28;20191;-85
2024/01/27 10:04:13;;;;;;;6.37;2.63;;;;;;;;;;4986967;28;20190;-85
2024/01/27 10:07:17;;;;;;;8.33;2.43;;;;;;;;;;4975712;28;20217;-85
2024/01/27 10:10:22;;;;;;;9.93;3.03;;;;;;;;;;4997851;28;20547;-84
2024/01/27 10:13:26;;;;;;;7.63;2.80;;;;;;;;;;4986250;28;20186;-85
2024/01/27 10:16:43;;;;;;;7.70;2.50;;;;;;;;;;4997459;28;20226;-85
2024/01/27 10:19:47;;;;;;;6.57;2.57;;;;;;;;;;4975376;28;20176;-84
2024/01/27 10:22:51;;;;;;;6.73;2.93;;;;;;;;;;4985889;28;20190;-84
2024/01/27 10:25:55;;;;;;;11.47;2.50;;;;;;;;;;4997205;28;20591;-85
2024/01/27 10:28:59;;;;;;;10.67;5.70;;;;;;;;;;4986270;28;20218;-84
2024/01/27 10:32:10;;;;;;;8.17;5.57;;;;;;;;;;4998081;28;20186;-84
2024/01/27 10:35:15;;;;;;;10.90;4.00;;;;;;;;;;4986701;28;20213;-85
2024/01/27 10:38:19;;;;;;;5.03;2.37;;;;;;;;;;4999019;28;20206;-85
2024/01/27 10:41:25;;;;;;;10.33;2.77;;;;;;;;;;4997723;28;20563;-85
2024/01/27 10:44:29;;;;;;;5.70;2.70;;;;;;;;;;4997704;28;20186;-84
2024/01/27 10:47:33;;;;;;;7.30;2.63;;;;;;;;;;4975057;28;20221;-84
2024/01/27 10:50:39;;;;;;;8.23;2.53;;;;;;;;;;4975349;28;20194;-85
2024/01/27 10:53:48;;;;;;;7.40;2.20;;;;;;;;;;4999613;28;20193;-85
2024/01/27 10:56:56;;;;;;;7.80;2.40;;;;;;;;;;4975915;28;20662;-85
2024/01/27 11:00:03;;;;;;;6.93;2.27;;;;;;;;;;4996794;28;20194;-85
2024/01/27 11:03:09;;;;;;;7.97;2.70;;;;;;;;;;4984928;28;20185;-85
2024/01/27 11:06:14;;;;;;;11.77;3.20;;;;;;;;;;4996745;28;20225;-85
2024/01/27 11:09:19;;;;;;;8.03;2.40;;;;;;;;;;4985317;28;20218;-85
2024/01/27 11:12:23;;;;;;;7.80;2.27;;;;;;;;;;4996802;28;20295;-85
2024/01/27 11:15:27;;;;;;;6.20;2.10;;;;;;;;;;4995799;28;20229;-85
2024/01/27 11:18:32;;;;;;;9.20;2.57;;;;;;;;;;4996302;28;20186;-85
2024/01/27 11:21:36;;;;;;;10.87;2.90;;;;;;;;;;4986112;28;20190;-85
2024/01/27 11:24:40;;;;;;;6.70;2.70;;;;;;;;;;4998012;28;20186;-85
2024/01/27 11:27:46;;;;;;;4.10;1.90;;;;;;;;;;4985371;28;20213;-83
2024/01/27 11:30:50;;;;;;;4.90;2.30;;;;;;;;;;4996038;28;20198;-83
2024/01/27 11:33:55;;;;;;;6.53;2.40;;;;;;;;;;4996859;28;20186;-85
2024/01/27 11:37:10;;;;;;;8.37;2.00;;;;;;;;;;4995849;28;20210;-82
2024/01/27 11:40:15;;;;;;;9.30;2.40;;;;;;;;;;4995091;28;20179;-82
2024/01/27 11:43:19;;;;;;;9.87;2.27;;;;;;;;;;4995454;28;20559;-82
2024/01/27 11:46:25;;;;;;;4.07;1.70;;;;;;;;;;4984007;28;20682;-81
2024/01/27 11:49:30;;;;;;;8.07;2.20;;;;;;;;;;4996376;28;20217;-82
2024/01/27 11:52:34;;;;;;;9.77;2.60;;;;;;;;;;4995922;28;20528;-82
2024/01/27 11:55:38;;;;;;;6.23;1.87;;;;;;;;;;4994705;28;20568;-82
2024/01/27 11:58:48;;;;;;;7.60;2.10;;;;;;;;;;4996388;28;20182;-82
2024/01/27 12:01:52;;;;;;;5.87;2.50;;;;;;;;;;4995566;28;20190;-82
2024/01/27 12:04:57;;;;;;;9.60;1.77;;;;;;;;;;4984229;28;20221;-83
2024/01/27 12:08:01;;;;;;;10.00;2.20;;;;;;;;;;4995513;28;20214;-84
2024/01/27 12:11:05;;;;;;;6.40;2.33;;;;;;;;;;4996107;28;20620;-83
2024/01/27 12:14:11;;;;;;;7.00;1.83;;;;;;;;;;4995554;28;20182;-83
2024/01/27 12:17:15;;;;;;;5.97;1.87;;;;;;;;;;4996339;28;20186;-84
2024/01/27 12:20:23;;;;;;;6.67;1.90;;;;;;;;;;4975133;28;20640;-84
2024/01/27 12:23:27;;;;;;;6.00;1.80;;;;;;;;;;4988744;28;20187;-83
2024/01/27 12:26:31;;;;;;;9.27;2.30;;;;;;;;;;4976320;28;20221;-84
2024/01/27 12:29:35;;;;;;;6.10;2.10;;;;;;;;;;4976788;28;20222;-82
2024/01/27 12:32:40;;;;;;;7.63;2.60;;;;;;;;;;4998208;28;20190;-83
2024/01/27 12:35:46;;;;;;;9.40;2.03;;;;;;;;;;4987349;28;20691;-82
2024/01/27 12:39:04;;;;;;;6.70;1.83;;;;;;;;;;4998583;28;20187;-82
2024/01/27 12:42:08;;;;;;;8.87;2.40;;;;;;;;;;4987013;28;20544;-81
2024/01/27 12:45:12;;;;;;;6.97;1.90;;;;;;;;;;4987067;28;20222;-80
2024/01/27 12:48:16;;;;;;;4.67;1.80;;;;;;;;;;4997860;28;20218;-80
2024/01/27 12:51:20;;;;;;;7.70;2.07;;;;;;;;;;4998787;28;20182;-81
2024/01/27 12:54:24;;;;;;;5.40;1.83;;;;;;;;;;4998152;28;20185;-83
2024/01/27 12:57:29;;;;;;;6.00;2.10;;;;;;;;;;4999108;28;20182;-83
2024/01/27 13:00:33;;;;;;;7.77;2.30;;;;;;;;;;4987074;28;20186;-85
2024/01/27 13:03:37;;;;;;;8.20;2.73;;;;;;;;;;4999815;28;20194;-84
2024/01/27 13:06:41;;;;;;;7.07;1.83;;;;;;;;;;4985587;28;20222;-84
2024/01/27 13:09:45;;;;;;;7.17;2.07;;;;;;;;;;4998312;28;20209;-84
2024/01/27 13:12:50;;;;;;;9.43;2.00;;;;;;;;;;4986021;28;20182;-84
2024/01/27 13:15:55;;;;;;;7.20;2.03;;;;;;;;;;4997831;28;20230;-84
2024/01/27 13:18:59;;;;;;;3.93;1.87;;;;;;;;;;4998404;28;20186;-84
2024/01/27 13:22:03;;;;;;;3.37;1.67;;;;;;;;;;4998829;28;20190;-84
2024/01/27 13:25:08;;;;;;;9.53;2.00;;;;;;;;;;4997864;28;20586;-84
2024/01/27 13:28:14;;;;;;;10.37;2.00;;;;;;;;;;4990805;28;20186;-84
2024/01/27 13:31:18;;;;;;;8.20;2.37;;;;;;;;;;5001764;28;20190;-84
2024/01/27 13:34:22;;;;;;;10.27;2.00;;;;;;;;;;5001223;28;20190;-84
2024/01/27 13:37:33;;;;;;;11.30;2.00;;;;;;;;;;5001006;28;20213;-84
2024/01/27 13:40:37;;;;;;;6.33;2.60;;;;;;;;;;5000546;28;20174;-83
2024/01/27 13:43:41;;;;;;;7.17;1.90;;;;;;;;;;5001374;28;20186;-84
2024/01/27 13:46:45;;;;;;;6.20;2.20;;;;;;;;;;4989635;28;20695;-83
2024/01/27 13:49:49;;;;;;;4.53;2.10;;;;;;;;;;4977903;28;20214;-84
2024/01/27 13:52:55;;;;;;;8.13;2.70;;;;;;;;;;5001132;28;20190;-84
2024/01/27 13:56:00;;;;;;;5.27;1.83;;;;;;;;;;5000865;28;20217;-84
2024/01/27 13:59:04;;;;;;;10.43;2.27;;;;;;;;;;4989190;28;20179;-84
2024/01/27 14:02:08;;;;;;;7.07;1.93;;;;;;;;;;5003461;28;20182;-84
2024/01/27 14:05:13;;;;;;;5.17;2.03;;;;;;;;;;4992213;28;20222;-84
2024/01/27 14:08:19;;;;;;;8.60;2.23;;;;;;;;;;4981197;28;20186;-84
2024/01/27 14:11:23;;;;;;;7.90;2.60;;;;;;;;;;4992057;28;20639;-84
2024/01/27 14:14:28;;;;;;;8.03;2.23;;;;;;;;;;5005875;28;20182;-83
2024/01/27 14:17:35;;;;;;;7.77;2.20;;;;;;;;;;5006040;28;20186;-84
2024/01/27 14:20:39;;;;;;;8.93;2.03;;;;;;;;;;5006008;28;20178;-84
2024/01/27 14:23:43;;;;;;;8.23;2.57;;;;;;;;;;5005665;28;20186;-84
2024/01/27 14:26:48;;;;;;;4.53;2.03;;;;;;;;;;4992720;28;20594;-85
2024/01/27 14:29:56;;;;;;;13.27;2.73;;;;;;;;;;5005843;28;20214;-85
2024/01/27 14:33:00;;;;;;;5.37;2.40;;;;;;;;;;4972131;28;20190;-85
2024/01/27 14:36:05;;;;;;;7.40;2.70;;;;;;;;;;5007276;28;20233;-85
2024/01/27 14:39:10;;;;;;;7.33;2.47;;;;;;;;;;5004452;28;20183;-84
2024/01/27 14:42:17;;;;;;;8.47;2.50;;;;;;;;;;5003759;28;20189;-85
2024/01/27 14:45:21;;;;;;;5.90;1.90;;;;;;;;;;4980618;28;20675;-85
2024/01/27 14:48:26;;;;;;;6.60;2.20;;;;;;;;;;5003799;28;20188;-85
2024/01/27 14:51:30;;;;;;;7.17;2.20;;;;;;;;;;5005063;28;20191;-85
2024/01/27 14:54:36;;;;;;;7.60;1.87;;;;;;;;;;4981680;28;20186;-85
2024/01/27 14:57:41;;;;;;;7.10;2.40;;;;;;;;;;4992462;28;20186;-85
2024/01/27 15:00:52;;;;;;;6.80;2.43;;;;;;;;;;5002091;28;20182;-85
2024/01/27 15:03:56;;;;;;;6.97;2.07;;;;;;;;;;4990638;28;20560;-85
2024/01/27 15:07:01;;;;;;;9.50;2.10;;;;;;;;;;4990929;28;20182;-85
2024/01/27 15:10:06;;;;;;;8.37;1.80;;;;;;;;;;4990429;28;20213;-85
2024/01/27 15:13:13;;;;;;;9.13;2.30;;;;;;;;;;4990067;28;20191;-83
2024/01/27 15:16:18;;;;;;;6.30;2.20;;;;;;;;;;4989748;28;20217;-84
2024/01/27 15:19:23;;;;;;;3.90;1.80;;;;;;;;;;4990359;28;20624;-84
2024/01/27 15:22:27;;;;;;;5.97;2.50;;;;;;;;;;5001493;28;20190;-84
2024/01/27 15:25:31;;;;;;;7.73;2.43;;;;;;;;;;4989144;28;20221;-84
2024/01/27 15:28:36;;;;;;;7.43;2.07;;;;;;;;;;5001014;28;20190;-84
2024/01/27 15:31:40;;;;;;;6.77;1.97;;;;;;;;;;4978562;28;20190;-83
2024/01/27 15:34:44;;;;;;;7.13;2.17;;;;;;;;;;4999117;28;20198;-84
2024/01/27 15:37:49;;;;;;;4.77;1.97;;;;;;;;;;4998927;28;20556;-84
2024/01/27 15:40:53;;;;;;;9.80;1.87;;;;;;;;;;4997779;28;20178;-85
2024/01/27 15:43:58;;;;;;;4.37;1.80;;;;;;;;;;4998912;28;20643;-85
2024/01/27 15:47:02;;;;;;;9.70;1.87;;;;;;;;;;4998554;28;20182;-84
2024/01/27 15:50:08;;;;;;;5.30;2.03;;;;;;;;;;4986160;28;20214;-85
2024/01/27 15:53:12;;;;;;;5.03;1.87;;;;;;;;;;4977308;28;20194;-84
2024/01/27 15:56:16;;;;;;;5.63;1.60;;;;;;;;;;5003013;28;20217;-84
2024/01/27 15:59:20;;;;;;;6.97;1.90;;;;;;;;;;5004114;28;20572;-84
2024/01/27 16:02:25;;;;;;;8.30;2.23;;;;;;;;;;5003993;28;20193;-85
2024/01/27 16:05:29;;;;;;;8.07;2.03;;;;;;;;;;5003551;28;20221;-84
2024/01/27 16:08:33;;;;;;;3.20;1.50;;;;;;;;;;5003808;28;20189;-85
2024/01/27 16:11:38;;;;;;;6.57;1.60;;;;;;;;;;5003580;28;20178;-84
2024/01/27 16:14:42;;;;;;;6.23;2.00;;;;;;;;;;5002780;28;20200;-85
2024/01/27 16:17:46;;;;;;;7.40;2.03;;;;;;;;;;5003647;28;20190;-84
2024/01/27 16:20:52;;;;;;;5.53;1.53;;;;;;;;;;4991482;28;20178;-84
2024/01/27 16:23:56;;;;;;;5.00;1.40;;;;;;;;;;4981135;28;20190;-84
2024/01/27 16:27:01;;;;;;;8.23;1.90;;;;;;;;;;4980467;28;20182;-84
2024/01/27 16:30:06;;;;;;;4.43;1.73;;;;;;;;;;5003675;28;20213;-84
2024/01/27 16:33:10;;;;;;;5.60;1.70;;;;;;;;;;5002464;28;20289;-84
2024/01/27 16:36:14;;;;;;;5.47;1.70;;;;;;;;;;5001934;28;20222;-84
2024/01/27 16:39:19;;;;;;;4.03;1.77;;;;;;;;;;5002258;28;20186;-85
2024/01/27 16:42:23;;;;;;;8.03;2.07;;;;;;;;;;4991530;28;20186;-84
2024/01/27 16:45:32;;;;;;;4.03;1.70;;;;;;;;;;5002937;28;20229;-85
2024/01/27 16:48:39;;;;;;;4.23;1.50;;;;;;;;;;5004111;28;20182;-85
2024/01/27 16:51:43;;;;;;;7.97;1.70;;;;;;;;;;5003727;28;20175;-85
2024/01/27 16:54:47;;;;;;;8.50;1.90;;;;;;;;;;5003258;28;20190;-85
2024/01/27 16:57:51;;;;;;;5.40;1.97;;;;;;;;;;5002427;28;20183;-84
2024/01/27 17:00:56;;;;;;;8.13;2.40;;;;;;;;;;5002511;28;20190;-84
2024/01/27 17:04:01;;;;;;;6.73;1.83;;;;;;;;;;4992219;28;20186;-85
2024/01/27 17:07:08;;;;;;;7.90;2.50;;;;;;;;;;4988172;28;20190;-85
2024/01/27 17:10:12;;;;;;;4.60;1.70;;;;;;;;;;4999108;28;20236;-84
2024/01/27 17:13:16;;;;;;;8.67;2.37;;;;;;;;;;4966698;28;20545;-83
2024/01/27 17:16:20;;;;;;;9.73;2.33;;;;;;;;;;4999389;28;20221;-84
2024/01/27 17:19:27;;;;;;;5.73;2.33;;;;;;;;;;4998593;28;20537;-84
2024/01/27 17:22:32;;;;;;;10.73;2.10;;;;;;;;;;4999047;28;20538;-84
2024/01/27 17:25:37;;;;;;;5.50;2.53;;;;;;;;;;4999968;28;20975;-88
2024/01/27 17:28:41;;;;;;;4.53;2.23;;;;;;;;;;4966038;28;20541;-83
2024/01/27 17:31:46;;;;;;;6.57;2.00;;;;;;;;;;4999864;28;21094;-81
2024/01/27 17:34:50;;;;;;;7.40;2.40;;;;;;;;;;4999646;28;21070;-80
2024/01/27 17:37:54;;;;;;;7.73;2.37;;;;;;;;;;4998225;28;20616;-84
2024/01/27 17:40:59;;;;;;;8.10;3.00;;;;;;;;;;4998892;28;20553;-83
2024/01/27 17:44:03;;;;;;;6.50;2.33;;;;;;;;;;4976722;28;20541;-84
2024/01/27 17:47:08;;;;;;;8.77;2.43;;;;;;;;;;4986957;28;20542;-84
2024/01/27 17:50:12;;;;;;;6.27;2.40;;;;;;;;;;4998758;28;20589;-83
2024/01/27 17:53:17;;;;;;;7.83;2.60;;;;;;;;;;4986802;28;20545;-83
2024/01/27 17:56:22;;;;;;;9.13;2.63;;;;;;;;;;4986508;28;20617;-84
2024/01/27 17:59:26;;;;;;;11.80;2.50;;;;;;;;;;4976388;28;20542;-84
2024/01/27 18:02:30;;;;;;;5.57;2.47;;;;;;;;;;4987113;28;20542;-84
2024/01/27 18:05:35;;;;;;;7.03;2.90;;;;;;;;;;4987465;28;20629;-85
2024/01/27 18:08:39;;;;;;;8.77;3.67;;;;;;;;;;4976417;28;20546;-85
2024/01/27 18:11:43;;;;;;;6.70;3.63;;;;;;;;;;4987983;28;20612;-84
2024/01/27 18:14:47;;;;;;;9.70;3.27;;;;;;;;;;4999467;28;20628;-85
2024/01/27 18:17:53;;;;;;;16.53;4.43;;;;;;;;;;4986515;28;20896;-85
2024/01/27 18:20:57;;;;;;;27.93;15.13;;;;;;;;;;4999729;28;20542;-84
2024/01/27 18:24:01;;;;;;;12.87;7.50;;;;;;;;;;4999394;28;20903;-84